Time;durP1;ratioP1;P1;durP2;ratioP2;P2;SDS_P1;SDS_P2;PMS_P1;PMS_P2;Temp;Humidity;BMP_temperature;BMP_pressure;BME280_temperature;BME280_humidity;BME280_pressure;Samples;Min_cycle;Max_cycle;Signal;HPM_P1;HPM_P2
2023/07/18 00:00:18;;;;;;;3.05;1.70;;;14.00;91.60;;;;;;4895235;28;89043;-96
2023/07/18 00:02:44;;;;;;;8.57;1.98;;;14.00;91.60;;;;;;4892139;28;87908;-94
2023/07/18 00:08:19;;;;;;;3.30;1.50;;;13.80;92.10;;;;;;5121679;22;93545;-80
2023/07/18 00:10:45;;;;;;;7.32;1.80;;;13.80;92.40;;;;;;4974037;28;87570;-81
2023/07/18 00:13:11;;;;;;;5.00;1.48;;;13.70;92.50;;;;;;4972284;28;88099;-80
2023/07/18 00:15:37;;;;;;;2.92;1.48;;;13.60;92.30;;;;;;4972820;28;87149;-81
2023/07/18 00:18:03;;;;;;;2.80;1.40;;;13.50;92.20;;;;;;4963585;28;90998;-80
2023/07/18 00:20:30;;;;;;;4.10;1.63;;;13.50;92.20;;;;;;4972576;28;88037;-80
2023/07/18 00:22:56;;;;;;;3.53;1.40;;;13.50;92.20;;;;;;4955472;28;87440;-80
2023/07/18 00:25:22;;;;;;;3.58;1.50;;;13.40;92.20;;;;;;4971201;28;90245;-81
2023/07/18 00:27:50;;;;;;;4.78;1.45;;;13.40;92.30;;;;;;4973415;28;88469;-80
2023/07/18 00:30:17;;;;;;;4.07;1.40;;;13.40;92.40;;;;;;4955655;28;91586;-80
2023/07/18 00:32:45;;;;;;;9.23;1.75;;;13.30;92.40;;;;;;4971339;28;87421;-81
2023/07/18 00:35:13;;;;;;;4.15;1.85;;;13.30;92.60;;;;;;4954498;28;89040;-80
2023/07/18 00:37:40;;;;;;;3.22;1.70;;;13.20;92.40;;;;;;4970498;28;89465;-80
2023/07/18 00:40:10;;;;;;;5.13;1.35;;;13.20;92.50;;;;;;4971525;28;91631;-80
2023/07/18 00:42:37;;;;;;;3.72;1.40;;;13.10;92.40;;;;;;4939372;28;86968;-81
2023/07/18 00:45:05;;;;;;;6.85;1.60;;;13.10;92.30;;;;;;4972149;28;87454;-80
2023/07/18 00:47:31;;;;;;;4.63;2.05;;;13.10;92.40;;;;;;4951311;28;90672;-80
2023/07/18 00:49:57;;;;;;;3.30;1.60;;;13.00;92.40;;;;;;4953246;28;91377;-80
2023/07/18 00:52:27;;;;;;;6.95;2.22;;;13.00;92.40;;;;;;4972628;28;87581;-80
2023/07/18 00:54:52;;;;;;;4.57;1.98;;;13.00;92.50;;;;;;4953117;28;90326;-80
2023/07/18 00:57:18;;;;;;;6.35;1.65;;;12.90;92.60;;;;;;4970188;28;91709;-80
2023/07/18 00:59:44;;;;;;;3.25;1.70;;;12.90;92.60;;;;;;4937548;28;90521;-80
2023/07/18 01:02:10;;;;;;;4.03;1.88;;;12.80;92.80;;;;;;4971603;28;89506;-80
2023/07/18 01:04:36;;;;;;;5.10;1.73;;;12.80;93.00;;;;;;4972155;28;88851;-80
2023/07/18 01:07:05;;;;;;;3.97;1.98;;;12.70;92.80;;;;;;4967007;28;90874;-80
2023/07/18 01:09:31;;;;;;;7.70;2.00;;;12.70;93.00;;;;;;4952619;28;89635;-80
2023/07/18 01:11:57;;;;;;;4.30;2.25;;;12.60;93.20;;;;;;4952588;28;87688;-80
2023/07/18 01:14:25;;;;;;;6.22;1.90;;;12.60;93.60;;;;;;4972010;28;87639;-80
2023/07/18 01:16:53;;;;;;;4.75;1.92;;;12.60;93.80;;;;;;4938524;28;91406;-80
2023/07/18 01:19:21;;;;;;;4.10;1.85;;;12.50;94.20;;;;;;4946145;28;91361;-80
2023/07/18 01:21:51;;;;;;;5.53;2.40;;;12.40;94.00;;;;;;4970541;28;87524;-80
2023/07/18 01:24:18;;;;;;;7.35;2.03;;;12.40;93.80;;;;;;4951916;28;88750;-81
2023/07/18 01:26:44;;;;;;;5.55;1.77;;;12.40;93.70;;;;;;4954500;28;91432;-80
2023/07/18 01:29:11;;;;;;;6.50;2.15;;;12.30;93.60;;;;;;4955094;28;89501;-80
2023/07/18 01:31:40;;;;;;;3.10;1.73;;;12.40;93.60;;;;;;4946870;28;87284;-80
2023/07/18 01:34:06;;;;;;;7.22;1.90;;;12.30;93.60;;;;;;4953458;28;94075;-80
2023/07/18 01:36:34;;;;;;;5.30;1.50;;;12.30;93.50;;;;;;4969925;28;90202;-80
2023/07/18 01:39:00;;;;;;;5.68;2.13;;;12.30;93.50;;;;;;4968888;28;88958;-80
2023/07/18 01:41:27;;;;;;;2.33;1.80;;;12.30;93.60;;;;;;4953342;28;86771;-80
2023/07/18 01:43:53;;;;;;;10.43;3.33;;;12.20;93.70;;;;;;4951483;28;88982;-80
2023/07/18 01:46:22;;;;;;;6.13;2.10;;;12.20;93.80;;;;;;4971577;28;90467;-81
2023/07/18 01:48:48;;;;;;;4.65;2.03;;;12.20;93.70;;;;;;4952091;28;90507;-81
2023/07/18 01:51:14;;;;;;;7.90;2.22;;;12.10;93.70;;;;;;4952661;28;88390;-80
2023/07/18 01:53:40;;;;;;;6.53;2.20;;;12.10;93.80;;;;;;4954243;28;91150;-80
2023/07/18 01:56:07;;;;;;;7.00;2.22;;;12.00;93.80;;;;;;4969088;28;90861;-80
2023/07/18 01:58:33;;;;;;;4.88;2.17;;;12.00;93.70;;;;;;4952633;28;91300;-80
2023/07/18 02:01:03;;;;;;;5.78;2.33;;;12.00;93.80;;;;;;4952777;28;87173;-80
2023/07/18 02:03:29;;;;;;;4.15;2.47;;;12.00;93.90;;;;;;4937249;28;89468;-80
2023/07/18 02:05:55;;;;;;;5.88;2.65;;;12.00;94.00;;;;;;4950612;28;90073;-80
2023/07/18 02:08:21;;;;;;;5.38;2.72;;;11.90;94.00;;;;;;4970320;28;88631;-80
2023/07/18 02:10:58;;;;;;;4.30;2.25;;;11.90;93.90;;;;;;4954368;28;87590;-80
2023/07/18 02:13:24;;;;;;;7.00;1.88;;;11.90;94.00;;;;;;4961584;28;94337;-80
2023/07/18 02:15:50;;;;;;;4.63;1.92;;;11.80;94.10;;;;;;4953593;28;91131;-81
2023/07/18 02:18:18;;;;;;;4.85;2.67;;;11.80;94.20;;;;;;4968787;28;90016;-80
2023/07/18 02:20:45;;;;;;;4.82;2.40;;;11.70;94.20;;;;;;4950970;28;87640;-80
2023/07/18 02:23:12;;;;;;;5.07;2.10;;;11.70;94.20;;;;;;4969322;28;88072;-80
2023/07/18 02:25:38;;;;;;;9.90;2.47;;;11.70;94.20;;;;;;4969986;28;87717;-80
2023/07/18 02:28:03;;;;;;;5.22;2.42;;;11.70;94.10;;;;;;4950741;28;90020;-80
2023/07/18 02:30:30;;;;;;;3.17;2.30;;;11.70;94.30;;;;;;4953602;28;87156;-82
2023/07/18 02:32:57;;;;;;;5.95;2.42;;;11.60;94.40;;;;;;4968412;28;89314;-81
2023/07/18 02:35:23;;;;;;;3.35;2.00;;;11.60;94.40;;;;;;4950250;28;90520;-82
2023/07/18 02:37:50;;;;;;;7.43;2.65;;;11.60;94.40;;;;;;4970495;28;87534;-81
2023/07/18 02:40:17;;;;;;;4.47;2.40;;;11.60;94.40;;;;;;4951861;28;88046;-81
2023/07/18 02:42:43;;;;;;;5.75;2.78;;;11.50;94.50;;;;;;4933325;28;90187;-82
2023/07/18 02:45:12;;;;;;;5.63;2.55;;;11.50;94.60;;;;;;4950762;28;90798;-81
2023/07/18 02:47:39;;;;;;;6.72;2.53;;;11.50;94.70;;;;;;4968537;28;92940;-81
2023/07/18 02:50:06;;;;;;;5.00;2.65;;;11.40;94.70;;;;;;4949720;28;87563;-81
2023/07/18 02:52:32;;;;;;;10.05;2.88;;;11.40;94.70;;;;;;4953032;28;87473;-81
2023/07/18 02:55:03;;;;;;;7.70;2.90;;;11.40;94.90;;;;;;4952936;28;87276;-81
2023/07/18 02:57:32;;;;;;;6.25;2.65;;;11.30;95.00;;;;;;4958441;28;91188;-81
2023/07/18 02:59:59;;;;;;;6.50;2.28;;;11.30;94.90;;;;;;4968813;28;87263;-81
2023/07/18 03:02:28;;;;;;;6.82;2.25;;;11.30;95.00;;;;;;4934607;28;89092;-81
2023/07/18 03:04:54;;;;;;;4.60;2.40;;;11.30;94.90;;;;;;4949830;28;92784;-81
2023/07/18 03:07:20;;;;;;;5.90;1.95;;;11.30;94.90;;;;;;4969531;28;90745;-81
2023/07/18 03:09:46;;;;;;;6.95;2.70;;;11.20;94.90;;;;;;4959725;28;87211;-81
2023/07/18 03:12:15;;;;;;;6.28;2.60;;;11.20;94.90;;;;;;4968657;28;89868;-81
2023/07/18 03:14:41;;;;;;;5.72;2.70;;;11.20;94.90;;;;;;4966622;28;89669;-81
2023/07/18 03:17:07;;;;;;;8.70;2.55;;;11.20;95.00;;;;;;4967233;28;87578;-81
2023/07/18 03:19:33;;;;;;;3.70;2.20;;;11.20;95.00;;;;;;4952740;28;87375;-81
2023/07/18 03:22:00;;;;;;;4.90;2.08;;;11.20;94.90;;;;;;4969596;28;86765;-81
2023/07/18 03:24:27;;;;;;;5.07;2.35;;;11.10;94.90;;;;;;4951590;28;89628;-81
2023/07/18 03:26:52;;;;;;;4.18;2.05;;;11.10;94.90;;;;;;4969271;28;87821;-81
2023/07/18 03:29:18;;;;;;;8.48;2.63;;;11.10;94.90;;;;;;4969207;28;88232;-81
2023/07/18 03:31:44;;;;;;;6.82;2.20;;;11.10;94.80;;;;;;4950791;28;90565;-81
2023/07/18 03:34:11;;;;;;;6.55;2.33;;;11.10;94.90;;;;;;4948338;28;88859;-82
2023/07/18 03:36:37;;;;;;;6.72;2.53;;;11.00;95.00;;;;;;4966256;28;89555;-81
2023/07/18 03:39:05;;;;;;;4.30;2.10;;;11.00;95.00;;;;;;4950763;28;87568;-81
2023/07/18 03:41:32;;;;;;;4.30;1.88;;;11.00;95.20;;;;;;4951794;28;87923;-81
2023/07/18 03:44:00;;;;;;;4.93;2.42;;;11.00;95.10;;;;;;4950502;28;89905;-81
2023/07/18 03:46:26;;;;;;;9.18;2.22;;;11.00;95.10;;;;;;4970803;28;89018;-81
2023/07/18 03:48:52;;;;;;;5.90;1.80;;;10.90;95.10;;;;;;4948933;28;87264;-81
2023/07/18 03:51:17;;;;;;;7.00;2.30;;;10.90;95.00;;;;;;4948744;28;89631;-81
2023/07/18 03:53:43;;;;;;;3.03;1.95;;;10.90;95.10;;;;;;4947145;28;91239;-80
2023/07/18 03:56:11;;;;;;;5.93;2.58;;;10.90;95.30;;;;;;4948155;28;91146;-81
2023/07/18 03:58:37;;;;;;;9.13;2.80;;;10.90;95.30;;;;;;4942032;28;87337;-81
2023/07/18 04:01:08;;;;;;;4.20;2.20;;;10.90;95.40;;;;;;4958861;28;89995;-81
2023/07/18 04:03:34;;;;;;;3.80;2.60;;;10.90;95.40;;;;;;4949221;28;91693;-81
2023/07/18 04:06:00;;;;;;;5.78;2.97;;;10.90;95.50;;;;;;4948178;28;91973;-81
2023/07/18 04:08:28;;;;;;;5.70;2.28;;;10.80;95.50;;;;;;4948531;28;87154;-82
2023/07/18 04:10:57;;;;;;;3.65;2.20;;;10.80;95.60;;;;;;4965998;28;88225;-80
2023/07/18 04:13:24;;;;;;;5.82;2.20;;;10.80;95.70;;;;;;4966289;28;89499;-82
2023/07/18 04:15:50;;;;;;;3.22;2.17;;;10.80;95.70;;;;;;4948598;28;90279;-81
2023/07/18 04:18:15;;;;;;;5.95;2.50;;;10.80;95.60;;;;;;4946058;28;88951;-81
2023/07/18 04:20:41;;;;;;;4.57;2.35;;;10.80;95.80;;;;;;4964411;28;87711;-81
2023/07/18 04:23:07;;;;;;;6.10;3.03;;;10.80;95.80;;;;;;4946189;28;89874;-81
2023/07/18 04:25:34;;;;;;;7.25;2.47;;;10.80;95.80;;;;;;4950376;28;89542;-81
2023/07/18 04:28:01;;;;;;;7.07;2.25;;;10.80;95.90;;;;;;4965108;28;87902;-82
2023/07/18 04:30:26;;;;;;;4.88;2.00;;;10.90;96.10;;;;;;4950643;28;89893;-81
2023/07/18 04:32:52;;;;;;;3.45;2.00;;;10.90;96.10;;;;;;4967018;28;90267;-82
2023/07/18 04:35:18;;;;;;;5.50;2.53;;;10.90;96.10;;;;;;4950288;28;89780;-81
2023/07/18 04:37:44;;;;;;;6.47;2.35;;;10.90;96.20;;;;;;4969495;28;87912;-81
2023/07/18 04:40:10;;;;;;;6.30;2.70;;;11.00;96.20;;;;;;4945092;28;88850;-81
2023/07/18 04:42:37;;;;;;;5.75;2.45;;;11.00;96.40;;;;;;4950993;28;93271;-80
2023/07/18 04:45:06;;;;;;;7.25;2.53;;;11.10;96.30;;;;;;4950408;28;90920;-81
2023/07/18 04:47:32;;;;;;;7.05;2.30;;;11.10;96.30;;;;;;4950573;28;87495;-82
2023/07/18 04:49:58;;;;;;;6.18;2.40;;;11.10;96.30;;;;;;4948768;28;90287;-80
2023/07/18 04:52:23;;;;;;;5.28;2.30;;;11.20;96.30;;;;;;4949836;28;90006;-80
2023/07/18 04:54:50;;;;;;;5.75;1.92;;;11.20;96.50;;;;;;4967226;28;87923;-82
2023/07/18 04:57:21;;;;;;;6.35;2.08;;;11.30;96.20;;;;;;4951560;28;87563;-82
2023/07/18 04:59:46;;;;;;;5.45;2.28;;;11.40;96.30;;;;;;4949974;28;90914;-81
2023/07/18 05:02:12;;;;;;;5.10;2.35;;;11.50;96.50;;;;;;4967533;28;91413;-80
2023/07/18 05:04:38;;;;;;;6.45;2.85;;;11.60;96.50;;;;;;4970212;28;88039;-80
2023/07/18 05:07:03;;;;;;;6.03;2.60;;;11.60;96.30;;;;;;4950562;28;87942;-81
2023/07/18 05:09:29;;;;;;;10.30;2.90;;;11.70;96.20;;;;;;4967715;28;87575;-81
2023/07/18 05:11:58;;;;;;;6.85;2.80;;;11.80;96.20;;;;;;4968155;28;88943;-81
2023/07/18 05:14:23;;;;;;;7.88;2.63;;;11.90;96.30;;;;;;4951398;28;91205;-81
2023/07/18 05:16:49;;;;;;;8.95;2.60;;;12.00;96.40;;;;;;4969193;28;87683;-80
2023/07/18 05:19:15;;;;;;;6.40;2.70;;;12.10;96.40;;;;;;4966339;28;87520;-81
2023/07/18 05:21:41;;;;;;;10.48;2.65;;;12.20;96.40;;;;;;4967899;28;87635;-81
2023/07/18 05:24:07;;;;;;;10.80;2.70;;;12.40;96.50;;;;;;4966582;28;89887;-81
2023/07/18 05:26:32;;;;;;;6.47;2.58;;;12.50;96.60;;;;;;4967377;28;87788;-81
2023/07/18 05:28:58;;;;;;;6.63;2.70;;;12.60;96.60;;;;;;4969572;28;87531;-80
2023/07/18 05:31:24;;;;;;;6.90;2.60;;;12.70;96.50;;;;;;4950993;28;90168;-80
2023/07/18 05:33:50;;;;;;;5.38;2.55;;;12.80;96.30;;;;;;4948795;28;91108;-81
2023/07/18 05:36:17;;;;;;;6.22;2.75;;;12.90;96.30;;;;;;4941949;28;87294;-81
2023/07/18 05:38:45;;;;;;;9.38;2.72;;;13.00;96.20;;;;;;4948089;28;89798;-81
2023/07/18 05:41:10;;;;;;;7.13;2.72;;;13.20;96.00;;;;;;4923142;28;90377;-80
2023/07/18 05:43:36;;;;;;;9.95;2.65;;;13.30;95.70;;;;;;4961114;28;87584;-80
2023/07/18 05:46:02;;;;;;;8.23;2.90;;;13.40;95.50;;;;;;4947435;28;87990;-80
2023/07/18 05:48:27;;;;;;;11.05;2.58;;;13.50;95.30;;;;;;4948363;28;90411;-81
2023/07/18 05:50:55;;;;;;;6.20;2.30;;;13.60;95.00;;;;;;4965187;28;88154;-80
2023/07/18 05:53:21;;;;;;;7.75;3.30;;;13.80;94.90;;;;;;4964998;28;89898;-81
2023/07/18 05:55:47;;;;;;;6.40;2.35;;;13.90;94.90;;;;;;4968438;28;88322;-82
2023/07/18 05:58:12;;;;;;;6.25;2.47;;;14.00;94.80;;;;;;4967683;28;87446;-80
2023/07/18 06:00:39;;;;;;;9.73;3.05;;;14.20;94.70;;;;;;4964932;28;88990;-80
2023/07/18 06:03:05;;;;;;;13.25;3.28;;;14.30;93.90;;;;;;4961825;28;91306;-80
2023/07/18 06:05:31;;;;;;;12.00;3.15;;;14.50;93.40;;;;;;4962877;28;87634;-80
2023/07/18 06:07:57;;;;;;;15.93;2.97;;;14.60;93.40;;;;;;4963566;28;87677;-79
2023/07/18 06:10:22;;;;;;;12.60;2.97;;;14.70;92.70;;;;;;4944517;28;91370;-80
2023/07/18 06:12:49;;;;;;;11.93;2.47;;;14.90;92.70;;;;;;4964909;28;87396;-80
2023/07/18 06:15:15;;;;;;;12.10;3.20;;;15.00;92.60;;;;;;4944341;28;87112;-80
2023/07/18 06:17:42;;;;;;;12.27;2.70;;;15.20;92.50;;;;;;5123649;22;88123;-96
2023/07/18 06:20:12;;;;;;;8.25;2.58;;;15.30;92.40;;;;;;4946690;28;90938;-93
2023/07/18 06:22:43;;;;;;;9.27;3.03;;;15.50;92.30;;;;;;4938957;28;90149;-96
2023/07/18 06:25:11;;;;;;;9.68;3.05;;;15.60;91.70;;;;;;4946825;28;87215;-95
2023/07/18 06:27:37;;;;;;;13.18;3.08;;;15.70;91.30;;;;;;4945072;28;89279;-96
2023/07/18 06:30:04;;;;;;;10.63;2.42;;;15.90;90.80;;;;;;4946160;28;89087;-96
2023/07/18 06:32:31;;;;;;;6.35;2.38;;;16.10;90.70;;;;;;4944196;28;87609;-96
2023/07/18 06:34:57;;;;;;;7.95;2.45;;;16.20;90.30;;;;;;4948305;28;87787;-96
2023/07/18 06:37:22;;;;;;;11.63;2.50;;;16.40;90.20;;;;;;4947537;28;89083;-96
2023/07/18 06:40:19;;;;;;;9.95;1.95;;;16.50;89.80;;;;;;4950925;28;91052;-96
2023/07/18 06:42:57;;;;;;;9.65;1.70;;;16.60;88.60;;;;;;4936469;28;88291;-96
2023/07/18 06:45:29;;;;;;;9.25;1.80;;;16.80;87.90;;;;;;4972350;28;88131;-96
2023/07/18 06:48:03;;;;;;;5.70;1.98;;;16.90;86.70;;;;;;4969629;28;87745;-96
2023/07/18 06:50:29;;;;;;;11.98;1.98;;;17.10;84.40;;;;;;4943332;28;88523;-95
2023/07/18 06:52:55;;;;;;;9.38;2.00;;;17.20;85.00;;;;;;4933456;28;90115;-94
2023/07/18 06:55:21;;;;;;;7.32;1.85;;;17.40;83.70;;;;;;4934522;28;87616;-95
2023/07/18 06:57:48;;;;;;;5.22;1.23;;;17.40;82.40;;;;;;4934370;28;89222;-95
2023/07/18 07:00:14;;;;;;;4.30;1.30;;;17.50;81.70;;;;;;4935003;28;90667;-95
2023/07/18 07:02:40;;;;;;;8.88;3.05;;;17.60;80.90;;;;;;4935822;28;90133;-93
2023/07/18 07:05:06;;;;;;;11.45;1.65;;;17.70;80.90;;;;;;4935084;28;87671;-95
2023/07/18 07:07:32;;;;;;;4.07;1.33;;;17.80;80.90;;;;;;4930861;28;88701;-95
2023/07/18 07:09:57;;;;;;;8.23;1.67;;;17.90;79.60;;;;;;4931338;28;90205;-95
2023/07/18 07:12:23;;;;;;;4.28;1.10;;;18.10;80.60;;;;;;4929919;28;90165;-95
2023/07/18 07:14:49;;;;;;;9.80;1.75;;;18.20;79.40;;;;;;4928466;28;87814;-94
2023/07/18 07:17:14;;;;;;;7.28;1.58;;;18.40;77.40;;;;;;4930166;28;89396;-95
2023/07/18 07:19:40;;;;;;;10.10;1.80;;;18.50;78.20;;;;;;4945825;28;90373;-95
2023/07/18 07:22:06;;;;;;;3.75;1.08;;;18.70;75.20;;;;;;4934510;28;88229;-94
2023/07/18 07:24:31;;;;;;;7.30;1.70;;;18.80;74.60;;;;;;4936309;28;87702;-96
2023/07/18 07:26:57;;;;;;;9.98;1.67;;;19.00;76.70;;;;;;4930484;28;88159;-95
2023/07/18 07:29:26;;;;;;;3.47;0.60;;;19.20;72.30;;;;;;4929803;28;89210;-93
2023/07/18 07:31:52;;;;;;;3.15;0.70;;;19.30;71.50;;;;;;4945585;28;89992;-93
2023/07/18 07:34:17;;;;;;;6.28;0.90;;;19.50;71.50;;;;;;4932159;28;88917;-95
2023/07/18 07:36:43;;;;;;;7.50;1.95;;;19.70;72.70;;;;;;4931090;28;88089;-93
2023/07/18 07:39:09;;;;;;;4.20;1.05;;;19.90;70.40;;;;;;4929648;28;89177;-92
2023/07/18 07:41:34;;;;;;;6.85;1.50;;;20.00;68.90;;;;;;4931982;28;90241;-91
2023/07/18 07:44:00;;;;;;;7.28;1.33;;;20.20;68.30;;;;;;4929341;28;91967;-93
2023/07/18 07:46:26;;;;;;;3.80;0.80;;;20.30;67.60;;;;;;4931359;28;89235;-93
2023/07/18 07:48:52;;;;;;;5.00;0.65;;;20.50;69.50;;;;;;4931498;28;90157;-92
2023/07/18 07:51:18;;;;;;;8.32;1.58;;;20.70;68.70;;;;;;4930673;28;89970;-92
2023/07/18 07:53:43;;;;;;;5.25;0.93;;;20.90;67.20;;;;;;4932573;28;87544;-92
2023/07/18 07:56:09;;;;;;;4.03;1.23;;;21.10;65.90;;;;;;4933123;28;87751;-95
2023/07/18 08:01:43;;;;;;;3.28;0.93;;;21.50;66.00;;;;;;4932340;28;93484;-95
2023/07/18 08:04:09;;;;;;;3.92;0.80;;;21.60;63.20;;;;;;4939957;28;87778;-94
2023/07/18 08:06:35;;;;;;;3.08;0.68;;;21.70;61.60;;;;;;4937482;28;89096;-95
2023/07/18 08:09:02;;;;;;;4.38;0.70;;;21.70;61.90;;;;;;4935047;28;90527;-95
2023/07/18 08:11:28;;;;;;;7.50;0.77;;;21.80;62.20;;;;;;4936771;28;90365;-95
2023/07/18 08:13:54;;;;;;;4.45;1.08;;;21.90;62.80;;;;;;4936661;28;87796;-95
2023/07/18 08:16:21;;;;;;;5.45;0.75;;;22.00;60.20;;;;;;4939265;28;89128;-96
2023/07/18 08:18:47;;;;;;;5.20;0.70;;;22.10;60.90;;;;;;4920765;28;90316;-93
2023/07/18 08:21:13;;;;;;;5.70;0.70;;;22.10;60.00;;;;;;4937929;28;90147;-94
2023/07/18 08:23:39;;;;;;;1.98;0.60;;;22.20;59.90;;;;;;4938572;28;88962;-94
2023/07/18 08:26:05;;;;;;;9.00;1.52;;;22.20;58.90;;;;;;4938173;28;89322;-95
2023/07/18 08:28:36;;;;;;;4.00;0.65;;;22.30;60.50;;;;;;4932580;28;90975;-94
2023/07/18 08:31:08;;;;;;;4.10;0.75;;;22.50;59.50;;;;;;4920266;28;89029;-95
2023/07/18 08:33:33;;;;;;;4.65;1.00;;;22.50;57.90;;;;;;4928803;28;87704;-94
2023/07/18 08:36:01;;;;;;;4.72;0.70;;;22.40;58.10;;;;;;4929027;28;89972;-94
2023/07/18 08:38:27;;;;;;;4.53;0.63;;;22.40;59.60;;;;;;4928876;28;90376;-94
2023/07/18 08:40:55;;;;;;;4.68;0.70;;;22.60;59.70;;;;;;4929913;28;90177;-93
2023/07/18 08:43:26;;;;;;;4.10;1.00;;;22.70;58.70;;;;;;4930978;28;88999;-93
2023/07/18 08:46:05;;;;;;;2.20;0.60;;;22.90;58.70;;;;;;4938383;28;88501;-93
2023/07/18 08:48:31;;;;;;;7.30;0.90;;;23.00;55.60;;;;;;4927555;28;91074;-94
2023/07/18 08:51:03;;;;;;;1.55;0.60;;;22.80;56.60;;;;;;4927854;28;91369;-93
2023/07/18 08:53:28;;;;;;;2.10;0.50;;;22.80;56.60;;;;;;4927386;28;87913;-93
2023/07/18 08:55:54;;;;;;;4.45;0.73;;;22.90;56.80;;;;;;4928182;28;87103;-94
2023/07/18 08:58:30;;;;;;;5.68;1.05;;;23.00;57.70;;;;;;4929063;28;89339;-95
2023/07/18 09:00:58;;;;;;;3.10;0.70;;;23.20;57.50;;;;;;4929237;28;89965;-93
2023/07/18 09:03:27;;;;;;;3.33;0.70;;;23.40;55.10;;;;;;4927897;28;87685;-94
2023/07/18 09:06:02;;;;;;;3.30;0.73;;;23.60;55.10;;;;;;4930123;28;88842;-94
2023/07/18 09:08:50;;;;;;;1.92;0.60;;;23.80;52.50;;;;;;4927086;28;90391;-94
2023/07/18 09:11:22;;;;;;;3.22;0.57;;;23.80;52.30;;;;;;4911346;28;90554;-93
2023/07/18 09:14:04;;;;;;;2.72;0.50;;;23.80;53.10;;;;;;4944816;28;88134;-93
2023/07/18 09:16:30;;;;;;;2.58;0.93;;;23.90;53.80;;;;;;4930929;28;89387;-90
2023/07/18 09:22:57;;;;;;;;;;;;;;;;;;;;;
2023/07/18 09:28:35;;;;;;;3.50;0.95;;;24.60;53.30;;;;;;4974411;22;87650;-83
2023/07/18 09:31:01;;;;;;;3.40;0.82;;;24.70;52.90;;;;;;4941979;28;90444;-83
2023/07/18 09:33:28;;;;;;;3.40;0.80;;;24.80;51.80;;;;;;4940714;28;89415;-81
2023/07/18 09:36:02;;;;;;;4.65;0.85;;;24.80;54.40;;;;;;4938296;28;87671;-81
2023/07/18 09:38:47;;;;;;;2.88;0.88;;;25.00;50.90;;;;;;4936207;28;88924;-81
2023/07/18 09:44:28;;;;;;;3.38;1.08;;;25.00;50.40;;;;;;4941790;28;92360;-83
2023/07/18 09:47:06;;;;;;;3.95;1.40;;;25.00;50.50;;;;;;4940302;28;87269;-80
2023/07/18 09:49:46;;;;;;;;;;;;;;;;;;;;;
2023/07/18 09:52:27;;;;;;;6.28;1.15;;;25.00;50.20;;;;;;4956257;28;118355;-82
2023/07/18 09:58:38;;;;;;;2.67;0.80;;;24.80;50.20;;;;;;4907087;28;87907;-82
2023/07/18 10:01:29;;;;;;;2.90;0.93;;;24.90;52.30;;;;;;4892368;28;88642;-82
2023/07/18 10:04:34;;;;;;;5.68;0.80;;;25.10;52.50;;;;;;4917444;28;91000;-82
2023/07/18 10:07:09;;;;;;;1.80;0.60;;;25.10;50.30;;;;;;4914146;28;89695;-82
2023/07/18 10:09:36;;;;;;;2.67;0.80;;;25.10;52.00;;;;;;4930815;28;88631;-83
2023/07/18 10:12:03;;;;;;;3.80;0.95;;;25.30;51.10;;;;;;4943104;28;88205;-83
2023/07/18 10:15:14;;;;;;;4.28;0.77;;;25.30;48.80;;;;;;4933461;28;89300;-83
2023/07/18 10:18:25;;;;;;;5.88;0.90;;;25.30;50.20;;;;;;4927846;28;87322;-82
2023/07/18 10:21:03;;;;;;;3.25;0.98;;;25.40;50.30;;;;;;4940699;28;87105;-83
2023/07/18 10:23:42;;;;;;;3.88;0.93;;;25.40;51.30;;;;;;4922188;28;89668;-82
2023/07/18 10:26:37;;;;;;;4.05;0.82;;;25.50;49.70;;;;;;4924264;28;89461;-82
2023/07/18 10:29:04;;;;;;;1.10;0.60;;;25.50;49.40;;;;;;4892416;28;89346;-80
2023/07/18 10:31:39;;;;;;;3.10;0.68;;;25.60;48.80;;;;;;4941012;28;87274;-83
2023/07/18 10:34:06;;;;;;;2.53;0.77;;;25.60;48.50;;;;;;4938212;28;88406;-83
2023/07/18 10:36:42;;;;;;;3.63;0.90;;;25.50;49.60;;;;;;4935859;28;90963;-83
2023/07/18 10:39:25;;;;;;;;;;;;;;;;;;;;;
2023/07/18 10:42:24;;;;;;;2.83;0.70;;;25.60;51.20;;;;;;4926529;28;109660;-83
2023/07/18 10:45:18;;;;;;;3.97;1.00;;;25.60;49.40;;;;;;4939403;28;87907;-83
2023/07/18 10:47:44;;;;;;;3.33;0.90;;;25.60;51.50;;;;;;4936662;28;92013;-83
2023/07/18 10:50:18;;;;;;;3.65;1.10;;;25.90;51.90;;;;;;4924596;28;90287;-83
2023/07/18 10:52:47;;;;;;;4.45;1.02;;;26.10;51.10;;;;;;4925238;28;87139;-83
2023/07/18 10:55:21;;;;;;;12.55;2.33;;;26.20;47.90;;;;;;4930239;28;92771;-83
2023/07/18 10:57:46;;;;;;;6.88;1.50;;;26.30;50.60;;;;;;4937051;28;90446;-83
2023/07/18 11:00:17;;;;;;;5.45;1.17;;;26.40;49.10;;;;;;4937314;28;90303;-82
2023/07/18 11:02:44;;;;;;;8.00;1.73;;;26.50;48.70;;;;;;4914243;28;88852;-82
2023/07/18 11:05:12;;;;;;;6.28;0.90;;;26.60;47.20;;;;;;4926788;28;88283;-82
2023/07/18 11:07:48;;;;;;;4.13;0.82;;;26.70;48.40;;;;;;4924528;28;89166;-82
2023/07/18 11:10:16;;;;;;;5.07;1.00;;;26.80;48.90;;;;;;4936567;28;91422;-82
2023/07/18 11:12:42;;;;;;;3.80;0.80;;;26.80;47.90;;;;;;4944143;28;87875;-83
2023/07/18 11:15:10;;;;;;;4.70;0.90;;;26.80;48.50;;;;;;4936234;28;89040;-83
2023/07/18 11:17:38;;;;;;;2.22;1.02;;;26.80;47.40;;;;;;4946298;28;90465;-82
2023/07/18 11:20:04;;;;;;;3.25;0.93;;;26.90;46.80;;;;;;4944581;28;87936;-83
2023/07/18 11:22:33;;;;;;;3.88;1.48;;;26.80;47.30;;;;;;4955500;28;87390;-83
2023/07/18 11:25:00;;;;;;;3.10;0.98;;;26.80;47.10;;;;;;4945636;28;87533;-82
2023/07/18 11:27:33;;;;;;;3.95;0.93;;;26.80;47.70;;;;;;4907933;28;90579;-82
2023/07/18 11:30:03;;;;;;;4.68;0.90;;;26.60;48.80;;;;;;4901711;28;93341;-82
2023/07/18 11:32:39;;;;;;;5.60;1.35;;;26.60;49.10;;;;;;4917001;28;87125;-83
2023/07/18 11:35:12;;;;;;;6.55;1.17;;;26.70;48.20;;;;;;4916086;28;87567;-83
2023/07/18 11:37:54;;;;;;;4.72;0.98;;;26.80;47.20;;;;;;4928069;28;91635;-83
2023/07/18 11:40:29;;;;;;;2.08;0.70;;;27.00;46.90;;;;;;4928911;28;95829;-82
2023/07/18 11:42:57;;;;;;;4.50;0.95;;;27.20;48.30;;;;;;4944801;28;87869;-82
2023/07/18 11:45:29;;;;;;;2.28;0.95;;;27.30;45.50;;;;;;4927301;28;89756;-82
2023/07/18 11:48:00;;;;;;;3.63;0.95;;;27.40;49.80;;;;;;4928381;28;91647;-82
2023/07/18 11:50:27;;;;;;;4.88;1.05;;;27.80;50.90;;;;;;4945695;28;88448;-83
2023/07/18 11:53:02;;;;;;;4.28;1.05;;;28.20;47.50;;;;;;4929047;28;88186;-82
2023/07/18 11:55:30;;;;;;;7.00;1.40;;;28.40;44.50;;;;;;4947545;28;87895;-83
2023/07/18 11:57:56;;;;;;;3.75;1.40;;;28.20;45.20;;;;;;4933936;28;91699;-82
2023/07/18 12:00:25;;;;;;;3.50;1.35;;;28.10;45.50;;;;;;4933907;28;92099;-82
2023/07/18 12:02:52;;;;;;;3.25;1.20;;;28.10;45.10;;;;;;4951621;28;87779;-82
2023/07/18 12:05:21;;;;;;;4.00;1.15;;;28.00;45.30;;;;;;4933111;28;89064;-83
2023/07/18 12:07:46;;;;;;;4.60;1.20;;;28.00;45.10;;;;;;4934489;28;89880;-83
2023/07/18 12:10:15;;;;;;;6.18;1.20;;;28.10;45.00;;;;;;4903505;28;91769;-82
2023/07/18 12:12:43;;;;;;;4.55;1.45;;;28.10;46.60;;;;;;4943104;28;87172;-83
2023/07/18 12:15:12;;;;;;;5.40;0.88;;;28.20;46.70;;;;;;4923840;28;90623;-80
2023/07/18 12:17:50;;;;;;;4.75;1.20;;;28.50;49.40;;;;;;4934162;28;92337;-81
2023/07/18 12:20:16;;;;;;;3.92;1.23;;;29.10;44.80;;;;;;4934040;28;91267;-80
2023/07/18 12:22:47;;;;;;;3.53;1.00;;;29.50;46.90;;;;;;4933274;28;88262;-81
2023/07/18 12:25:12;;;;;;;1.98;0.80;;;29.90;48.10;;;;;;4915636;28;89734;-81
2023/07/18 12:27:38;;;;;;;2.83;0.88;;;30.50;48.80;;;;;;4932533;28;91098;-80
2023/07/18 12:30:04;;;;;;;4.72;1.00;;;31.10;47.70;;;;;;4913121;28;90902;-81
2023/07/18 12:32:32;;;;;;;1.88;0.90;;;31.60;42.40;;;;;;4925498;28;91064;-81
2023/07/18 12:34:58;;;;;;;2.10;0.95;;;31.90;42.50;;;;;;4935116;28;90336;-81
2023/07/18 12:37:30;;;;;;;3.15;1.40;;;31.90;42.70;;;;;;4934064;28;90466;-80
2023/07/18 12:39:56;;;;;;;4.00;1.02;;;32.00;43.20;;;;;;4935057;28;90689;-80
2023/07/18 12:42:21;;;;;;;8.10;1.10;;;32.00;39.80;;;;;;4941202;28;88470;-81
2023/07/18 12:44:50;;;;;;;3.40;1.20;;;32.00;40.40;;;;;;4949741;28;88499;-80
2023/07/18 12:47:17;;;;;;;3.20;1.13;;;31.70;40.90;;;;;;4933577;28;91454;-80
2023/07/18 12:49:46;;;;;;;3.88;1.27;;;31.30;38.70;;;;;;4930989;28;90203;-81
2023/07/18 12:52:25;;;;;;;;;;;;;;;;;;;;;
2023/07/18 12:54:51;;;;;;;3.35;1.20;;;31.00;41.60;;;;;;4947365;28;115588;-81
2023/07/18 12:57:18;;;;;;;3.15;1.05;;;31.10;41.00;;;;;;4930662;28;90619;-81
2023/07/18 12:59:44;;;;;;;3.80;1.35;;;31.10;40.80;;;;;;4924339;28;90016;-81
2023/07/18 13:02:15;;;;;;;3.47;1.00;;;31.20;40.00;;;;;;4930490;28;87916;-80
2023/07/18 13:04:41;;;;;;;6.85;1.02;;;31.20;39.60;;;;;;4931412;28;90463;-80
2023/07/18 13:07:09;;;;;;;7.90;1.17;;;31.10;39.90;;;;;;4933626;28;90213;-81
2023/07/18 13:09:36;;;;;;;2.92;0.98;;;31.00;40.40;;;;;;4932570;28;91656;-80
2023/07/18 13:12:13;;;;;;;6.60;1.23;;;31.00;38.80;;;;;;4928193;28;87996;-80
2023/07/18 13:14:39;;;;;;;4.82;1.30;;;30.90;40.10;;;;;;4942075;28;89341;-81
2023/07/18 13:17:05;;;;;;;2.75;0.90;;;30.80;39.50;;;;;;4940627;28;91399;-80